neil on the web!

ADDS Results

1006 UTC 05 August 2020

EGJB 050950Z 18013KT 9999 FEW005 18/15 Q1014
EGJB 050920Z 18013KT 9999 FEW012 18/14 Q1014
EGJB 050850Z 19011KT 9999 FEW012 18/15 Q1014
EGJB 050820Z 19012KT 9999 FEW012 17/14 Q1014
TAF EGJB 050804Z 0509/0518 18012KT 9999 FEW015
PROB30
TEMPO 0509/0510 BKN012
BECMG 0514/0516 26005KT
EGJJ 050950Z 17011KT 140V200 9999 FEW012 19/15 Q1015
EGJJ 050920Z 18009KT 150V210 9999 FEW012 18/15 Q1014
EGJJ 050850Z 18010KT 150V210 9999 FEW012 18/15 Q1014
EGJJ 050820Z 19011KT 9999 FEW008 18/15 Q1015
TAF EGJJ 050804Z 0509/0518 18013KT 9999 FEW015
PROB30
TEMPO 0509/0510 BKN012
BECMG 0515/0517 26005KT
EGKK 050950Z 19010KT 150V230 9999 FEW039 22/11 Q1013
EGKK 050920Z 19012KT 160V230 9999 FEW036 21/11 Q1014
EGKK 050850Z 20011KT 170V230 CAVOK 21/12 Q1014
EGKK 050820Z 20011KT 9999 FEW030 20/11 Q1014
TAF EGKK 050458Z 0506/0612 20010KT 9999 SCT035
PROB30
TEMPO 0519/0522 7000 SHRA
BECMG 0522/0601 BKN010
TEMPO 0601/0609 4000 RADZ BKN006
PROB30
TEMPO 0603/0609 BKN004
BECMG 0609/0612 SCT030
EGSS 050950Z AUTO 21015KT 9999 NCD 22/10 Q1013
EGSS 050920Z AUTO 20013KT 9999 NCD 20/10 Q1013
EGSS 050850Z AUTO 20013KT 9999 NCD 19/11 Q1013
EGSS 050820Z AUTO 21012KT 9999 NCD 18/12 Q1013
TAF EGSS 050456Z 0506/0612 21015KT 9999 SCT025
PROB30
TEMPO 0506/0509 BKN014
PROB30
TEMPO 0515/0519 9000 SHRA
TEMPO 0520/0612 BKN012
PROB30
TEMPO 0600/0612 9000 -RADZ BKN009
BECMG 0603/0606 20005KT
EGGW 050950Z AUTO 20012G22KT 140V230 9999 NCD 21/12 Q1012
EGGW 050920Z AUTO 19012KT 150V230 9999 NCD 21/12 Q1012
EGGW 050850Z AUTO 20010KT 160V230 9999 FEW016 SCT045 20/13 Q1012
EGGW 050820Z AUTO 20010KT 150V230 9999 BKN013 OVC043 19/14 Q1012
TAF EGGW 050456Z 0506/0606 21012KT 9999 BKN012
PROB30
TEMPO 0506/0509 BKN007
BECMG 0507/0510 SCT024
PROB30
TEMPO 0510/0517 22015G25KT
PROB30
TEMPO 0515/0519 7000 SHRA
TEMPO 0520/0606 BKN012
PROB30
TEMPO 0521/0606 9000 -RA BKN007
EGSH 050950Z 22015KT 180V250 9999 FEW023 23/14 Q1011 NOSIG
EGSH 050920Z 22015KT 190V250 9999 FEW023 22/15 Q1011 NOSIG
EGSH 050850Z 22015KT 190V250 9999 FEW023 21/14 Q1011 NOSIG
EGSH 050820Z 22014KT 190V250 9999 SCT022 20/14 Q1012
TAF EGSH 050753Z 0509/0518 22012KT 9999 FEW040
PROB30
TEMPO 0509/0517 23015G25KT
EGLC 050950Z AUTO 22012KT 180V250 9999 NCD 23/10 Q1013
EGLC 050920Z AUTO 24010KT 200V260 9999 NCD 23/10 Q1013
EGLC 050850Z AUTO 22010KT 180V270 9999 NCD 22/09 Q1013
EGLC 050820Z AUTO 22008KT 180V240 9999 NCD 20/11 Q1013
TAF EGLC 050757Z 0509/0518 23012KT 9999 FEW045
EGMC 050950Z 19012KT CAVOK 23/12 Q1013
EGMC 050920Z 20014KT CAVOK 22/12 Q1013
EGMC 050850Z 20014KT CAVOK 22/12 Q1013
EGMC 050820Z 21014KT 9999 FEW049 20/12 Q1013
TAF EGMC 050757Z 0509/0518 21015KT CAVOK
EGLL 050950Z AUTO 20013KT 9999 NCD 23/10 Q1013 NOSIG
EGLL 050920Z AUTO 21009KT 9999 NCD 22/11 Q1013 NOSIG
EGLL 050850Z AUTO 21010KT 9999 NCD 20/13 Q1013 NOSIG
EGLL 050820Z AUTO 21011KT 9999 NCD 19/13 Q1013 NOSIG
TAF EGLL 050453Z 0506/0612 21012KT 9999 FEW012 SCT025
PROB30
TEMPO 0506/0509 BKN012
PROB30
TEMPO 0517/0520 7000 SHRA
TEMPO 0520/0611 BKN012
PROB40
TEMPO 0522/0610 6000 -RADZ BKN009
EGHI 050950Z 20013KT 170V230 9999 SCT024 21/12 Q1013
EGHI 050920Z 21013KT 9999 SCT020 20/12 Q1013
EGHI 050850Z 19011KT 140V220 9999 SCT020 20/13 Q1013
EGHI 050820Z 20012KT 160V230 9999 BKN017 20/14 Q1013
TAF EGHI 050804Z 0509/0518 20012KT 9999 SCT020
TEMPO 0509/0515 BKN012
EGHH 050950Z 20011KT 180V250 9999 FEW015 SCT018 20/15 Q1013
EGHH 050920Z 23010KT 9999 FEW015 SCT018 21/15 Q1013
EGHH 050850Z 22011KT 9999 FEW011 SCT015 19/14 Q1013
EGHH 050820Z 22011KT 9999 FEW011 SCT015 SCT018 19/14 Q1013
TAF EGHH 050804Z 0509/0518 21012KT 9999 SCT020
TEMPO 0509/0518 BKN012
PROB30
TEMPO 0512/0518 22015G25KT
PROB30
TEMPO 0515/0518 7000 RA
EGCC 050950Z AUTO 20012KT 170V230 9999 BKN022 20/15 Q1008 NOSIG
EGCC 050920Z AUTO 20010KT 170V230 9999 BKN022 OVC029 19/15 Q1008 NOSIG
EGCC 050850Z AUTO 20009KT 160V230 9999 OVC020 18/15 Q1008 NOSIG
EGCC 050820Z AUTO 19007KT 9999 OVC020 18/15 Q1008
TAF EGCC 050456Z 0506/0612 19008KT 9999 SCT030
PROB30
TEMPO 0506/0518 6000 RA
PROB30
TEMPO 0513/0518 4000 +RA BKN008
TEMPO 0518/0609 BKN010
PROB30
TEMPO 0518/0524 6000 RA BKN008
EGNX 050950Z 19019KT 9999 SCT022 21/14 Q1009
EGNX 050920Z 19015KT 9999 SCT019 20/15 Q1009
EGNX 050850Z 19017KT 9999 SCT019 BKN047 19/14 Q1009
EGNX 050820Z 18015KT 9999 SCT017 BKN043 18/14 Q1009
TAF EGNX 050456Z 0506/0606 20012KT 9999 SCT030
PROB40
TEMPO 0506/0521 20015G25KT
PROB30
TEMPO 0515/0518 7000 SHRA BKN014
PROB30
TEMPO 0518/0606 BKN014
EGGP 050950Z 19015KT 9999 BKN028 20/16 Q1007
EGGP 050920Z 18011KT 9999 BKN026 19/16 Q1007
EGGP 050850Z 16009KT 9999 BKN027 19/16 Q1007
EGGP 050820Z 19011KT 9999 BKN025 19/16 Q1007
TAF EGGP 050456Z 0506/0606 18012KT 9999 SCT030
PROB30
TEMPO 0506/0518 20015G25KT 6000 RA
PROB30
TEMPO 0513/0518 4000 +RA BKN008
TEMPO 0518/0606 BKN012
PROB30
TEMPO 0518/0524 6000 RA BKN008
BECMG 0521/0524 27006KT
EGNM 050950Z 20010KT 170V240 9999 BKN017 18/14 Q1007
EGNM 050920Z 19008KT 9999 BKN018 18/14 Q1007
EGNM 050850Z 20011KT 9999 SCT013 17/14 Q1007
EGNM 050820Z 21015KT 9999 FEW009 SCT019 17/14 Q1007
TAF EGNM 050457Z 0506/0606 19015KT 9999 SCT015
TEMPO 0506/0518 20018G28KT
TEMPO 0506/0510 8000 -RA BKN011
PROB40
TEMPO 0506/0510 4000 +RA
TEMPO 0514/0518 7000 RA BKN014
TEMPO 0520/0606 8000 -RA BKN014
BECMG 0523/0602 27005KT
EGBB 050950Z 21009KT 160V240 9999 SCT024 21/14 Q1010
EGBB 050920Z 20012KT 180V240 9999 SCT023 20/15 Q1010
EGBB 050850Z 20011KT 180V250 9999 BKN021 20/14 Q1010
EGBB 050820Z 19011KT 9999 SCT015 BKN019 19/15 Q1010
TAF EGBB 050456Z 0506/0606 20010KT 9999 SCT020
TEMPO 0506/0509 BKN012
PROB40
TEMPO 0506/0518 20015G25KT
PROB40
TEMPO 0514/0517 7000 SHRA BKN014
PROB30
TEMPO 0517/0606 BKN014
EGGD 050950Z AUTO 18010KT 9999 BKN009 OVC030 18/16 Q1011
EGGD 050920Z AUTO 19011KT 9999 BKN009 18/16 Q1011
EGGD 050850Z AUTO 19010KT 9999 BKN008 OVC017 18/16 Q1012
EGGD 050820Z AUTO 19011KT 9999 BKN006 OVC014 18/16 Q1012
TAF EGGD 050456Z 0506/0606 21014KT 9999 BKN009
BECMG 0506/0509 SCT024
TEMPO 0506/0508 BKN003
PROB30
TEMPO 0509/0517 22017G27KT
TEMPO 0515/0518 7000 SHRA BKN012
PROB30
TEMPO 0515/0518 4000 +SHRA RADZ BKN008
TEMPO 0518/0606 BKN010
PROB30
TEMPO 0518/0606 BKN005
BECMG 0600/0603 VRB04KT
EGFF 050950Z AUTO 20008KT 9999 FEW026 SCT030 BKN039 20/16 Q1010
EGFF 050920Z AUTO 17005KT 140V200 9999 SCT028 BKN033 OVC040 19/16 Q1010
EGFF 050850Z AUTO 13007KT 9999 BKN024 OVC040 19/16 Q1011
EGFF 050820Z AUTO 21006KT 9999 BKN024 19/15 Q1011
TAF EGFF 050456Z 0506/0606 22014KT 9999 SCT018
TEMPO 0506/0508 BKN014
TEMPO 0514/0517 7000 SHRA BKN012
PROB30
TEMPO 0514/0517 4000 +SHRA RADZ BKN009
PROB30
TEMPO 0517/0606 BKN009
BECMG 0600/0603 VRB03KT
EGTE 050950Z 14009KT 9999 FEW008 BKN015 18/17 Q1011
EGTE 050920Z 17009KT 140V200 9999 FEW007 BKN012 19/17 Q1011
EGTE 050850Z 17007KT 130V220 9999 FEW005 BKN011 18/17 Q1011
EGTE 050820Z 14008KT 9999 7000NE FEW004 BKN008 17/17 Q1011
TAF AMD EGTE 050825Z 0509/0516 18012KT 9999 SCT020
TEMPO 0509/0516 BKN012
PROB30
TEMPO 0509/0516 20015G25KT 8000 -RA BKN004
EGPF 050950Z AUTO 23008KT 9999 SCT024 BKN028 OVC033 17/14 Q1002
EGPF 050920Z AUTO 21010KT 9999 FEW013 BKN023 OVC029 16/14 Q1002
EGPF 050850Z AUTO 21011KT 9999 OVC033 16/14 Q1002
EGPF 050820Z AUTO 21009KT 9999 FEW013 OVC035 16/14 Q1002
TAF EGPF 050457Z 0506/0606 25007KT 9999 BKN030
TEMPO 0506/0524 6000 -RADZ RA BKN012
PROB30
TEMPO 0506/0511 BKN008
PROB30
TEMPO 0511/0521 4000 RADZ +RA BKN007
EGPH 050950Z 25006KT 9999 FEW019 OVC025 17/14 Q1002
EGPH 050920Z 24008KT 9999 FEW016 BKN031 17/14 Q1002
EGPH 050850Z 24006KT 9999 FEW016 BKN033 17/14 Q1002
EGPH 050820Z 24005KT 9999 FEW015 BKN032 16/14 Q1002
TAF EGPH 050457Z 0506/0606 25009KT 9999 FEW030 SCT040
TEMPO 0506/0524 6000 -RADZ RA BKN012
PROB30
TEMPO 0511/0522 4000 RADZ +RA BKN008
EGPK 050950Z VRB03KT 9999 SCT016 SCT038 18/15 Q1002
EGPK 050920Z 26004KT 9999 FEW014 BKN030 17/14 Q1002
EGPK 050850Z 26006KT 9999 FEW014 BKN030 16/14 Q1002
EGPK 050820Z 21006KT 9999 FEW014 BKN030 17/14 Q1002
TAF EGPK 050457Z 0506/0606 22008KT 9999 FEW012 SCT020
TEMPO 0506/0524 6000 -RADZ RA BKN014
PROB30
TEMPO 0509/0517 3000 RADZ +RA BKN008
PROB30
TEMPO 0517/0524 4000 RADZ BKN004
EHAM 050955Z 21012KT 180V250 CAVOK 23/12 Q1015 NOSIG
EHAM 050925Z 22012KT 180V260 CAVOK 22/11 Q1015 NOSIG
EHAM 050855Z 22013KT 190V250 CAVOK 21/13 Q1015 NOSIG
EHAM 050825Z 21013KT 180V260 CAVOK 20/12 Q1015 NOSIG
TAF EHAM 050426Z 0506/0612 22010KT CAVOK
BECMG 0516/0519 29005KT
BECMG 0522/0601 19005KT
LFLS 051000Z AUTO 03008KT 330V090 CAVOK 22/09 Q1016 NOSIG
LFLS 050930Z AUTO 36010KT 340V040 CAVOK 21/09 Q1016 NOSIG
LFLS 050900Z AUTO 05010KT 010V080 CAVOK 21/10 Q1016 NOSIG
LFLS 050830Z AUTO 04010KT CAVOK 20/09 Q1016 NOSIG
TAF LFLS 050800Z 0509/0609 03010KT CAVOK
BECMG 0521/0523 09005KT
LFLL 051000Z VRB04KT CAVOK 21/11 Q1016 NOSIG
LFLL 050930Z 27003KT 210V350 CAVOK 20/10 Q1016 NOSIG
LFLL 050900Z VRB03KT CAVOK 19/11 Q1016 NOSIG
LFLL 050830Z 30003KT 230V030 CAVOK 18/11 Q1017 NOSIG
TAF LFLL 050500Z 0506/0612 36008KT CAVOK
TEMPO 0520/0609 VRB02KT
LFLC 051000Z AUTO VRB04KT CAVOK 23/10 Q1017 NOSIG
LFLC 050930Z AUTO VRB03KT CAVOK 22/10 Q1017 NOSIG
LFLC 050900Z AUTO VRB03KT CAVOK 21/09 Q1017 NOSIG
LFLC 050830Z AUTO VRB02KT CAVOK 20/09 Q1018 NOSIG
TAF LFLC 050800Z 0509/0609 VRB02KT CAVOK
BECMG 0509/0511 02006KT
TEMPO 0600/0606 18002KT
LFRD 051000Z AUTO 20012KT 9999 OVC024 21/15 Q1015 NOSIG
LFRD 050930Z AUTO 21015KT 190V250 9999 OVC023 20/15 Q1015 NOSIG
LFRD 050900Z AUTO 20014KT 170V230 9999 BKN022 19/14 Q1015 NOSIG
LFRD 050830Z AUTO 19010KT 160V230 9999 BKN021 19/15 Q1015 NOSIG
TAF LFRD 050500Z 0506/0606 19010KT CAVOK
TEMPO 0508/0510 BKN020
PROB30
TEMPO 0513/0517 23015G25KT
BECMG 0522/0524 VRB05KT
TEMPO 0603/0606 3000 BR
LFRC 051000Z AUTO 22012KT 180V250 9999 FEW024 21/13 Q1015 NOSIG
LFRC 050930Z AUTO 22011KT 160V260 9999 FEW024 20/13 Q1015 NOSIG
LFRC 050900Z AUTO 22009KT 9999 BKN020 18/13 Q1015 NOSIG
LFRC 050830Z AUTO 21010KT 9999 FEW014 BKN020 19/14 Q1015 NOSIG
TAF LFRC 050800Z 0509/0518 22010G20KT 9999 SCT015 SCT020
BECMG 0516/0518 26008KT
VHHH 051000Z 24006KT 190V300 9999 3500E -SHRA FEW008 SCT025 27/24 Q1008 TEMPO
3500 SHRA FEW010CB SCT020
VHHH 050940Z 24006KT 200V300 9999 -SHRA FEW008 SCT023 26/25 Q1008 RERA WS R25R
TEMPO 3500 SHRA FEW010CB SCT020
VHHH 050930Z VRB05KT 7000 SHRA FEW008 SCT023 26/24 Q1008 TEMPO 21020G30KT 2000
TSRA +SHRA FEW008CB SCT015
VHHH 050900Z 23012KT 6000 2100E SHRA FEW006 SCT023 26/24 Q1008 TEMPO 21020G30KT
2000 TSRA +SHRA FEW008CB SCT015
VHHH 050830Z 23013KT 7000 -SHRA FEW008 SCT023 26/24 Q1008 RERA TEMPO 21020G30KT
2000 +SHRA FEW008CB SCT015
VHHH 050822Z 22016KT 6000 SHRA FEW006 SCT020 26/24 Q1008 RERA TEMPO 21020G30KT
2000 +SHRA FEW008CB SCT015
VHHH 050810Z 23020KT 3000 0500W R07R/1300D R25L/P2000N R07L/1700D R25R/P2000N
+SHRA FEW006 FEW010CB SCT020 26/24 Q1008 TEMPO 21020G30KT 4000 SHRA FEW010CB
SCT020
TAF VHHH 050500Z 0506/0612 16010KT 9000 FEW015 SCT030 TX31/0506Z TX31/0606Z
TN26/0522Z
TEMPO 0506/0511 VRB15G25KT 3000 TSRA SHRA FEW010CB SCT020 BKN040
TEMPO 0521/0603 4000 SHRA FEW010CB SCT025